createdAt,value
2022-09-18T00:01:17.326Z,99.20
2022-09-18T00:04:21.743Z,99.40
2022-09-18T00:07:24.822Z,99.60
2022-09-18T00:10:27.963Z,99.90
2022-09-18T00:13:31.078Z,99.90
2022-09-18T00:16:34.557Z,99.90
2022-09-18T00:19:39.016Z,99.90
2022-09-18T00:22:42.098Z,99.90
2022-09-18T00:25:45.153Z,99.90
2022-09-18T00:28:48.207Z,99.90
2022-09-18T00:31:51.369Z,99.90
2022-09-18T00:34:55.897Z,99.90
2022-09-18T00:37:59.463Z,99.90
2022-09-18T00:41:03.964Z,99.90
2022-09-18T00:44:31.115Z,99.90
2022-09-18T00:47:39.333Z,99.90
2022-09-18T00:50:43.804Z,99.90
2022-09-18T00:53:55.622Z,99.90
2022-09-18T00:57:02.779Z,99.90
2022-09-18T01:00:12.204Z,99.90
2022-09-18T01:03:15.275Z,99.90
2022-09-18T01:06:30.279Z,99.90
2022-09-18T01:09:41.852Z,99.90
2022-09-18T01:12:53.301Z,99.90
2022-09-18T01:16:03.241Z,99.90
2022-09-18T01:19:16.870Z,99.90
2022-09-18T01:22:33.118Z,99.90
2022-09-18T01:25:51.358Z,99.90
2022-09-18T01:29:00.074Z,99.90
2022-09-18T01:32:07.980Z,99.90
2022-09-18T01:35:40.000Z,99.90
2022-09-18T01:38:46.626Z,99.90
2022-09-18T01:41:52.012Z,99.90
2022-09-18T01:45:00.396Z,99.90
2022-09-18T01:48:07.814Z,99.90
2022-09-18T01:51:15.398Z,99.90
2022-09-18T01:54:22.807Z,99.90
2022-09-18T01:57:29.230Z,99.90
2022-09-18T02:00:34.365Z,99.90
2022-09-18T02:03:42.359Z,99.90
2022-09-18T02:06:53.332Z,99.90
2022-09-18T02:09:58.419Z,99.90
2022-09-18T02:13:03.899Z,99.90
2022-09-18T02:16:13.459Z,99.90
2022-09-18T02:19:19.374Z,99.90
2022-09-18T02:22:25.471Z,99.90
2022-09-18T02:25:32.384Z,99.90
2022-09-18T02:28:38.062Z,99.90
2022-09-18T02:31:42.789Z,99.90
2022-09-18T02:34:46.085Z,99.90
2022-09-18T02:37:58.574Z,99.90
2022-09-18T02:41:08.683Z,99.90
2022-09-18T02:44:20.802Z,99.90
2022-09-18T02:47:35.496Z,99.90
2022-09-18T02:50:48.498Z,99.90
2022-09-18T02:53:58.313Z,99.90
2022-09-18T02:57:07.304Z,99.90
2022-09-18T03:00:17.002Z,99.90
2022-09-18T03:03:21.444Z,99.90
2022-09-18T03:06:24.516Z,99.90
2022-09-18T03:09:27.591Z,99.90
2022-09-18T03:12:30.690Z,99.90
2022-09-18T03:15:33.785Z,99.90
2022-09-18T03:18:38.251Z,99.90
2022-09-18T03:21:41.448Z,99.90
2022-09-18T03:24:44.542Z,99.90
2022-09-18T03:27:47.626Z,99.90
2022-09-18T03:30:51.008Z,99.90
2022-09-18T03:33:55.453Z,99.90
2022-09-18T03:36:58.540Z,99.90
2022-09-18T03:40:01.686Z,99.90
2022-09-18T03:43:04.950Z,99.90
2022-09-18T03:46:08.108Z,99.90
2022-09-18T03:49:12.570Z,99.90
2022-09-18T03:52:15.632Z,99.90
2022-09-18T03:55:18.836Z,99.90
2022-09-18T03:58:21.911Z,99.90
2022-09-18T04:01:25.347Z,99.90
2022-09-18T04:04:30.252Z,99.90
2022-09-18T04:07:33.339Z,99.90
2022-09-18T04:10:36.495Z,99.90
2022-09-18T04:13:39.552Z,99.90
2022-09-18T04:16:42.653Z,99.90
2022-09-18T04:19:50.172Z,99.90
2022-09-18T04:22:56.420Z,99.90
2022-09-18T04:25:59.481Z,99.90
2022-09-18T04:29:04.052Z,99.90
2022-09-18T04:32:07.695Z,99.90
2022-09-18T04:35:12.582Z,99.90
2022-09-18T04:38:15.687Z,99.90
2022-09-18T04:41:18.750Z,99.90
2022-09-18T04:44:22.038Z,99.90
2022-09-18T04:47:25.153Z,99.90
2022-09-18T04:50:29.578Z,99.90
2022-09-18T04:53:35.444Z,99.90
2022-09-18T04:56:38.551Z,99.90
2022-09-18T04:59:41.608Z,99.90
2022-09-18T05:02:44.715Z,99.90
2022-09-18T05:05:49.430Z,99.90
2022-09-18T05:08:52.489Z,99.90
2022-09-18T05:11:55.599Z,99.90
2022-09-18T05:14:58.664Z,99.90
2022-09-18T05:18:06.578Z,99.90
2022-09-18T05:21:13.686Z,99.90
2022-09-18T05:24:17.605Z,99.90
2022-09-18T05:27:23.538Z,99.90
2022-09-18T05:30:30.894Z,99.90
2022-09-18T05:33:34.198Z,99.90
2022-09-18T05:36:38.638Z,99.90
2022-09-18T05:39:42.299Z,99.90
2022-09-18T05:42:48.918Z,99.90
2022-09-18T05:45:51.967Z,99.90
2022-09-18T05:48:55.023Z,99.90
2022-09-18T05:51:59.470Z,99.90
2022-09-18T05:55:02.740Z,99.90
2022-09-18T05:58:07.655Z,99.90
2022-09-18T06:01:10.901Z,99.90
2022-09-18T06:04:14.022Z,99.90
2022-09-18T06:07:18.625Z,99.90
2022-09-18T06:10:23.131Z,99.90
2022-09-18T06:13:26.406Z,99.90
2022-09-18T06:16:29.653Z,99.90
2022-09-18T06:19:32.806Z,99.90
2022-09-18T06:22:37.744Z,99.90
2022-09-18T06:25:40.893Z,99.90
2022-09-18T06:28:44.077Z,99.90
2022-09-18T06:31:47.193Z,99.90
2022-09-18T06:34:50.297Z,99.90
2022-09-18T06:37:54.779Z,99.90
2022-09-18T06:40:57.842Z,99.80
2022-09-18T06:44:00.932Z,99.50
2022-09-18T06:47:04.186Z,97.30
2022-09-18T06:50:08.194Z,92.80
2022-09-18T06:53:12.978Z,90.70
2022-09-18T06:56:16.105Z,91.30
2022-09-18T06:59:19.284Z,90.20
2022-09-18T07:02:22.416Z,82.50
2022-09-18T07:05:26.890Z,73.10
2022-09-18T07:08:31.665Z,67.70
2022-09-18T07:11:36.364Z,61.80
2022-09-18T07:14:39.435Z,58.70
2022-09-18T07:17:42.539Z,60.80
2022-09-18T07:20:45.692Z,64.10
2022-09-18T07:23:50.096Z,68.30
2022-09-18T07:26:53.194Z,70.10
2022-09-18T07:29:57.137Z,71.80
2022-09-18T07:33:00.239Z,70.70
2022-09-18T07:36:04.167Z,71.30
2022-09-18T07:39:08.625Z,69.10
2022-09-18T07:42:12.027Z,68.30
2022-09-18T07:45:15.126Z,67.70
2022-09-18T07:48:18.325Z,69.20
2022-09-18T07:51:25.548Z,71.80
2022-09-18T07:54:31.130Z,70.20
2022-09-18T07:57:34.218Z,68.30
2022-09-18T08:00:38.255Z,60.20
2022-09-18T08:03:41.681Z,58.30
2022-09-18T08:06:46.138Z,59.10
2022-09-18T08:09:50.565Z,58.90
2022-09-18T08:12:55.201Z,56.80
2022-09-18T08:15:58.398Z,56.70
2022-09-18T08:19:01.540Z,56.90
2022-09-18T08:22:06.298Z,55.70
2022-09-18T08:25:12.130Z,56.70
2022-09-18T08:28:15.206Z,57.60
2022-09-18T08:31:18.324Z,58.00
2022-09-18T08:34:21.446Z,58.80
2022-09-18T08:37:24.591Z,61.20
2022-09-18T08:40:58.995Z,61.90
2022-09-18T08:44:07.961Z,56.80
2022-09-18T08:47:17.340Z,47.40
2022-09-18T08:50:24.945Z,34.60
2022-09-18T08:53:35.089Z,29.30
2022-09-18T08:56:40.920Z,26.20
2022-09-18T08:59:47.751Z,22.10
2022-09-18T09:02:52.471Z,20.00
2022-09-18T09:05:59.361Z,18.00
2022-09-18T09:09:21.409Z,17.30
2022-09-18T09:12:36.509Z,17.20
2022-09-18T09:15:47.257Z,15.60
2022-09-18T09:19:00.349Z,14.80
2022-09-18T09:22:09.791Z,14.20
2022-09-18T09:25:22.048Z,14.20
2022-09-18T09:28:32.368Z,13.10
2022-09-18T09:31:39.312Z,12.50
2022-09-18T09:34:47.952Z,12.90
2022-09-18T09:37:52.397Z,13.90
2022-09-18T09:40:58.035Z,14.90
2022-09-18T09:44:15.808Z,15.40
2022-09-18T09:47:30.420Z,15.70
2022-09-18T09:50:46.090Z,17.40
2022-09-18T09:53:49.594Z,19.10
2022-09-18T09:57:01.189Z,20.00
2022-09-18T10:00:14.616Z,21.70
2022-09-18T10:03:35.924Z,22.20
2022-09-18T10:06:48.426Z,23.80
2022-09-18T10:09:56.729Z,24.80
2022-09-18T10:13:04.853Z,26.00
2022-09-18T10:16:17.545Z,27.30
2022-09-18T10:19:22.824Z,28.20
2022-09-18T10:22:27.415Z,29.50
2022-09-18T10:25:37.145Z,29.90
2022-09-18T10:28:40.242Z,30.50
2022-09-18T10:31:52.586Z,31.10
2022-09-18T10:34:55.725Z,31.50
2022-09-18T10:37:59.709Z,32.20
2022-09-18T10:41:33.948Z,32.50
2022-09-18T10:44:38.689Z,32.80
2022-09-18T10:47:43.593Z,32.80
2022-09-18T10:50:54.245Z,30.00
2022-09-18T10:54:05.882Z,29.50
2022-09-18T10:57:28.238Z,30.50
2022-09-18T11:00:38.777Z,30.80
2022-09-18T11:03:46.316Z,30.50
2022-09-18T11:06:49.471Z,30.10
2022-09-18T11:09:52.772Z,30.00
2022-09-18T11:12:57.802Z,29.70
2022-09-18T11:16:03.638Z,29.00
2022-09-18T11:19:24.512Z,29.10
2022-09-18T11:22:36.510Z,29.40
2022-09-18T11:25:39.602Z,29.70
2022-09-18T11:28:42.712Z,31.00
2022-09-18T11:31:51.090Z,31.10
2022-09-18T11:34:58.570Z,32.00
2022-09-18T11:38:07.787Z,32.50
2022-09-18T11:41:13.140Z,33.10
2022-09-18T11:44:20.125Z,33.90
2022-09-18T11:47:42.621Z,34.30
2022-09-18T11:50:47.825Z,36.10
2022-09-18T11:53:56.225Z,36.60
2022-09-18T11:57:02.972Z,37.50
2022-09-18T12:00:09.626Z,38.00
2022-09-18T12:03:19.932Z,39.20
2022-09-18T12:06:30.342Z,39.60
2022-09-18T12:09:39.577Z,38.90
2022-09-18T12:12:47.455Z,38.10
2022-09-18T12:15:57.981Z,36.90
2022-09-18T12:19:05.300Z,38.30
2022-09-18T12:22:16.561Z,39.00
2022-09-18T12:25:22.006Z,38.60
2022-09-18T12:28:32.659Z,38.80
2022-09-18T12:31:43.650Z,38.40
2022-09-18T12:34:55.673Z,38.20
2022-09-18T12:38:10.688Z,38.60
2022-09-18T12:41:27.140Z,39.50
2022-09-18T12:45:06.039Z,39.70
2022-09-18T12:48:25.573Z,39.80
2022-09-18T12:51:43.158Z,40.20
2022-09-18T12:55:17.903Z,39.80
2022-09-18T12:58:38.740Z,38.90
2022-09-18T13:01:47.750Z,38.80
2022-09-18T13:04:56.019Z,38.80
2022-09-18T13:08:06.650Z,40.10
2022-09-18T13:11:18.093Z,39.90
2022-09-18T13:14:26.926Z,40.60
2022-09-18T13:17:35.114Z,41.60
2022-09-18T13:20:42.786Z,41.60
2022-09-18T13:23:47.584Z,42.00
2022-09-18T13:26:53.269Z,42.20
2022-09-18T13:29:59.208Z,42.70
2022-09-18T13:33:03.479Z,42.70
2022-09-18T13:36:07.209Z,42.80
2022-09-18T13:39:19.966Z,43.00
2022-09-18T13:42:33.052Z,42.80
2022-09-18T13:45:39.689Z,42.50
2022-09-18T13:48:46.542Z,42.50
2022-09-18T13:51:50.902Z,42.60
2022-09-18T13:55:25.382Z,42.40
2022-09-18T13:58:54.629Z,42.70
2022-09-18T14:02:02.534Z,42.70
2022-09-18T14:05:29.647Z,44.30
2022-09-18T14:08:39.520Z,45.80
2022-09-18T14:11:42.619Z,46.50
2022-09-18T14:15:02.826Z,46.50
2022-09-18T14:18:14.564Z,46.50
2022-09-18T14:21:25.334Z,46.80
2022-09-18T14:24:55.186Z,48.00
2022-09-18T14:28:03.287Z,45.60
2022-09-18T14:31:22.644Z,46.30
2022-09-18T14:34:31.360Z,46.00
2022-09-18T14:37:37.667Z,43.90
2022-09-18T14:40:41.460Z,44.40
2022-09-18T14:43:49.647Z,45.10
2022-09-18T14:46:55.746Z,44.90
2022-09-18T14:49:58.859Z,44.30
2022-09-18T14:53:03.795Z,43.80
2022-09-18T14:56:08.944Z,43.70
2022-09-18T14:59:17.946Z,43.90
2022-09-18T15:02:29.258Z,44.50
2022-09-18T15:05:33.061Z,45.30
2022-09-18T15:08:37.735Z,44.80
2022-09-18T15:12:01.269Z,45.50
2022-09-18T15:15:30.977Z,45.70
2022-09-18T15:18:43.251Z,45.60
2022-09-18T15:21:49.341Z,45.60
2022-09-18T15:24:52.817Z,45.10
2022-09-18T15:27:58.129Z,44.50
2022-09-18T15:31:04.898Z,45.20
2022-09-18T15:34:16.490Z,46.60
2022-09-18T15:37:22.092Z,45.50
2022-09-18T15:40:30.266Z,45.30
2022-09-18T15:43:43.503Z,44.90
2022-09-18T15:46:46.679Z,45.30
2022-09-18T15:49:51.665Z,44.50
2022-09-18T15:53:05.928Z,45.00
2022-09-18T15:56:20.052Z,45.60
2022-09-18T15:59:30.370Z,45.90
2022-09-18T16:02:37.592Z,45.20
2022-09-18T16:05:53.495Z,46.00
2022-09-18T16:08:57.924Z,46.20
2022-09-18T16:12:01.337Z,45.60
2022-09-18T16:15:18.034Z,45.50
2022-09-18T16:18:25.792Z,45.00
2022-09-18T16:21:30.678Z,45.40
2022-09-18T16:24:33.866Z,45.30
2022-09-18T16:27:36.955Z,45.60
2022-09-18T16:30:40.029Z,46.10
2022-09-18T16:33:57.254Z,45.90
2022-09-18T16:37:02.033Z,46.60
2022-09-18T16:40:05.663Z,47.50
2022-09-18T16:43:10.757Z,47.10
2022-09-18T16:46:15.847Z,47.30
2022-09-18T16:49:22.166Z,47.50
2022-09-18T16:52:26.734Z,48.00
2022-09-18T16:55:31.363Z,48.20
2022-09-18T16:58:36.593Z,48.50
2022-09-18T17:02:00.523Z,48.90
2022-09-18T17:05:05.568Z,49.40
2022-09-18T17:08:10.459Z,49.80
2022-09-18T17:11:14.310Z,49.80
2022-09-18T17:14:17.668Z,50.20
2022-09-18T17:17:21.346Z,49.70
2022-09-18T17:20:24.916Z,50.90
2022-09-18T17:23:30.601Z,50.50
2022-09-18T17:26:35.811Z,49.50
2022-09-18T17:29:40.278Z,49.30
2022-09-18T17:32:43.717Z,49.20
2022-09-18T17:35:47.744Z,49.50
2022-09-18T17:38:52.792Z,49.40
2022-09-18T17:41:57.567Z,49.70
2022-09-18T17:45:01.166Z,51.40
2022-09-18T17:48:04.770Z,52.40
2022-09-18T17:51:12.487Z,52.90
2022-09-18T17:54:17.534Z,54.50
2022-09-18T17:57:21.129Z,55.10
2022-09-18T18:00:25.261Z,56.10
2022-09-18T18:03:29.629Z,56.90
2022-09-18T18:06:33.121Z,57.30
2022-09-18T18:09:38.743Z,57.90
2022-09-18T18:12:41.996Z,57.90
2022-09-18T18:15:45.471Z,57.70
2022-09-18T18:18:48.732Z,58.10
2022-09-18T18:21:52.265Z,58.50
2022-09-18T18:24:56.838Z,58.30
2022-09-18T18:28:00.280Z,58.00
2022-09-18T18:31:07.478Z,57.90
2022-09-18T18:34:12.103Z,58.10
2022-09-18T18:37:15.649Z,58.50
2022-09-18T18:40:22.240Z,58.30
2022-09-18T18:43:25.733Z,59.00
2022-09-18T18:46:36.672Z,59.20
2022-09-18T18:49:40.583Z,59.50
2022-09-18T18:52:43.946Z,60.00
2022-09-18T18:55:49.584Z,60.60
2022-09-18T18:58:57.893Z,60.00
2022-09-18T19:02:02.623Z,61.10
2022-09-18T19:05:07.082Z,62.80
2022-09-18T19:08:10.285Z,64.00
2022-09-18T19:11:16.605Z,64.10
2022-09-18T19:14:22.155Z,64.20
2022-09-18T19:17:27.123Z,64.70
2022-09-18T19:20:30.649Z,65.40
2022-09-18T19:23:34.226Z,65.90
2022-09-18T19:26:40.412Z,66.80
2022-09-18T19:29:43.798Z,67.40
2022-09-18T19:32:47.413Z,68.50
2022-09-18T19:35:50.966Z,69.50
2022-09-18T19:38:54.675Z,70.20
2022-09-18T19:42:03.297Z,70.90
2022-09-18T19:45:07.460Z,71.90
2022-09-18T19:48:19.319Z,73.00
2022-09-18T19:51:22.773Z,74.30
2022-09-18T19:54:26.056Z,75.10
2022-09-18T19:57:30.900Z,75.50
2022-09-18T20:00:34.438Z,76.30
2022-09-18T20:03:37.847Z,76.10
2022-09-18T20:06:42.853Z,76.90
2022-09-18T20:09:45.991Z,77.40
2022-09-18T20:12:52.850Z,78.00
2022-09-18T20:16:00.894Z,78.50
2022-09-18T20:19:06.508Z,78.90
2022-09-18T20:22:09.605Z,79.60
2022-09-18T20:25:13.326Z,81.10
2022-09-18T20:28:17.792Z,82.20
2022-09-18T20:31:23.498Z,84.00
2022-09-18T20:34:26.854Z,85.30
2022-09-18T20:37:33.045Z,86.00
2022-09-18T20:40:38.467Z,86.80
2022-09-18T20:43:44.259Z,87.30
2022-09-18T20:46:47.508Z,87.60
2022-09-18T20:49:52.183Z,86.00
2022-09-18T20:52:55.379Z,86.00
2022-09-18T20:55:59.553Z,85.80
2022-09-18T20:59:05.072Z,84.70
2022-09-18T21:02:08.868Z,83.30
2022-09-18T21:05:14.709Z,82.20
2022-09-18T21:08:17.823Z,83.70
2022-09-18T21:11:23.355Z,83.80
2022-09-18T21:14:27.788Z,82.90
2022-09-18T21:17:31.596Z,83.00
2022-09-18T21:20:34.684Z,83.10
2022-09-18T21:23:58.487Z,83.80
2022-09-18T21:27:01.582Z,82.80
2022-09-18T21:30:07.828Z,82.80
2022-09-18T21:33:14.152Z,83.50
2022-09-18T21:36:17.253Z,84.00
2022-09-18T21:39:20.338Z,84.30
2022-09-18T21:42:23.913Z,83.80
2022-09-18T21:45:31.041Z,84.10
2022-09-18T21:48:34.838Z,84.90
2022-09-18T21:51:40.653Z,85.70
2022-09-18T21:54:43.787Z,88.50
2022-09-18T21:57:46.951Z,90.30
2022-09-18T22:00:51.440Z,91.30
2022-09-18T22:03:59.403Z,92.10
2022-09-18T22:07:04.055Z,92.70
2022-09-18T22:10:08.576Z,94.00
2022-09-18T22:13:11.719Z,94.80
2022-09-18T22:16:16.282Z,95.60
2022-09-18T22:19:19.731Z,96.10
2022-09-18T22:22:23.205Z,96.50
2022-09-18T22:25:26.275Z,96.90
2022-09-18T22:28:29.578Z,97.20
2022-09-18T22:31:34.573Z,97.40
2022-09-18T22:34:38.169Z,97.80
2022-09-18T22:37:41.294Z,98.00
2022-09-18T22:40:44.437Z,98.00
2022-09-18T22:43:47.724Z,97.90
2022-09-18T22:46:53.433Z,97.80
2022-09-18T22:49:56.611Z,97.70
2022-09-18T22:52:59.701Z,97.70
2022-09-18T22:56:04.789Z,97.80
2022-09-18T22:59:08.447Z,98.10
2022-09-18T23:02:13.049Z,98.20
2022-09-18T23:05:16.620Z,98.40
2022-09-18T23:08:19.723Z,98.40
2022-09-18T23:11:25.419Z,98.60
2022-09-18T23:14:31.235Z,98.70
2022-09-18T23:17:35.757Z,98.80
2022-09-18T23:20:38.818Z,99.00
2022-09-18T23:23:43.738Z,99.10
2022-09-18T23:26:49.052Z,99.30
2022-09-18T23:29:52.153Z,99.60
2022-09-18T23:32:56.590Z,99.60
2022-09-18T23:36:07.246Z,99.90
2022-09-18T23:39:14.526Z,99.90
2022-09-18T23:42:17.596Z,99.90
2022-09-18T23:45:20.894Z,99.90
2022-09-18T23:48:25.759Z,99.90
2022-09-18T23:51:30.169Z,99.90
2022-09-18T23:54:33.665Z,99.90
2022-09-18T23:57:37.045Z,99.90
